Time;durP1;ratioP1;P1;durP2;ratioP2;P2;SDS_P1;SDS_P2;PMS_P1;PMS_P2;Temp;Humidity;BMP_temperature;BMP_pressure;BME280_temperature;BME280_humidity;BME280_pressure;Samples;Min_cycle;Max_cycle;Signal;HPM_P1;HPM_P2
2023/04/17 00:02:09;;;;;;;;;;;;;;;6.93;99.00;99499.44;5106950;28;19963;-79
2023/04/17 00:04:36;;;;;;;;;;;;;;;6.95;100.00;99497.41;5091767;28;19931;-79
2023/04/17 00:07:02;;;;;;;;;;;;;;;7.11;98.45;99490.81;5086569;28;21183;-79
2023/04/17 00:09:27;;;;;;;;;;;;;;;6.86;100.00;99490.69;5091063;28;20429;-79
2023/04/17 00:11:53;;;;;;;;;;;;;;;6.97;99.89;99495.34;5088969;28;19948;-79
2023/04/17 00:14:18;;;;;;;;;;;;;;;6.90;100.00;99494.56;5089021;28;19923;-79
2023/04/17 00:16:43;;;;;;;;;;;;;;;6.90;100.00;99481.31;5088673;28;19965;-80
2023/04/17 00:19:08;;;;;;;;;;;;;;;6.79;100.00;99497.88;5103802;28;19927;-80
2023/04/17 00:21:34;;;;;;;;;;;;;;;6.84;100.00;99494.59;5104452;28;19923;-79
2023/04/17 00:23:59;;;;;;;;;;;;;;;6.93;100.00;99488.84;5085435;28;19920;-79
2023/04/17 00:26:24;;;;;;;;;;;;;;;6.76;100.00;99485.84;5084542;28;19920;-79
2023/04/17 00:28:50;;;;;;;;;;;;;;;6.90;100.00;99485.78;5087054;28;19920;-80
2023/04/17 00:31:16;;;;;;;;;;;;;;;6.79;100.00;99488.06;5082250;28;19924;-80
2023/04/17 00:33:41;;;;;;;;;;;;;;;6.80;100.00;99494.19;5088483;28;19927;-79
2023/04/17 00:36:07;;;;;;;;;;;;;;;6.64;100.00;99494.66;5083294;28;19933;-79
2023/04/17 00:38:32;;;;;;;;;;;;;;;6.55;100.00;99493.22;5088780;28;19916;-79
2023/04/17 00:40:57;;;;;;;;;;;;;;;6.71;100.00;99496.25;5088860;28;19923;-79
2023/04/17 00:43:22;;;;;;;;;;;;;;;6.52;100.00;99499.75;5085155;28;19924;-79
2023/04/17 00:45:48;;;;;;;;;;;;;;;6.60;100.00;99491.56;5086918;28;19926;-81
2023/04/17 00:48:16;;;;;;;;;;;;;;;6.50;100.00;99496.50;5083555;28;20014;-81
2023/04/17 00:50:42;;;;;;;;;;;;;;;6.50;100.00;99487.72;5089167;28;20006;-81
2023/04/17 00:53:08;;;;;;;;;;;;;;;6.41;100.00;99495.06;5085890;28;19924;-81
2023/04/17 00:55:34;;;;;;;;;;;;;;;6.47;100.00;99490.78;5087744;28;19962;-81
2023/04/17 00:57:59;;;;;;;;;;;;;;;6.48;100.00;99489.75;5090027;28;20272;-80
2023/04/17 01:00:25;;;;;;;;;;;;;;;6.43;100.00;99492.22;5087815;28;19928;-79
2023/04/17 01:02:50;;;;;;;;;;;;;;;6.67;100.00;99491.56;5088029;28;20348;-79
2023/04/17 01:05:16;;;;;;;;;;;;;;;6.61;100.00;99493.22;5089726;28;20450;-80
2023/04/17 01:07:41;;;;;;;;;;;;;;;6.60;100.00;99496.88;5092436;28;19921;-81
2023/04/17 01:10:07;;;;;;;;;;;;;;;6.51;100.00;99500.75;5091443;28;20533;-80
2023/04/17 01:12:32;;;;;;;;;;;;;;;6.59;100.00;99492.63;5088771;28;19931;-78
2023/04/17 01:14:58;;;;;;;;;;;;;;;6.65;100.00;99496.25;5087587;28;20135;-80
2023/04/17 01:17:26;;;;;;;;;;;;;;;6.66;100.00;99497.91;5087316;28;19920;-79
2023/04/17 01:19:52;;;;;;;;;;;;;;;6.70;99.63;99488.50;5085920;28;19924;-79
2023/04/17 01:22:19;;;;;;;;;;;;;;;6.46;100.00;99495.28;5088374;28;19943;-79
2023/04/17 01:24:44;;;;;;;;;;;;;;;6.44;100.00;99499.97;5087124;28;19920;-78
2023/04/17 01:27:12;;;;;;;;;;;;;;;6.38;100.00;99492.00;5087185;28;19927;-79
2023/04/17 01:29:38;;;;;;;;;;;;;;;6.67;100.00;99502.16;5090923;28;19920;-78
2023/04/17 01:32:03;;;;;;;;;;;;;;;6.63;100.00;99504.44;5096580;28;19964;-78
2023/04/17 01:34:28;;;;;;;;;;;;;;;6.40;100.00;99500.59;5109634;28;19981;-78
2023/04/17 01:36:54;;;;;;;;;;;;;;;6.47;100.00;99501.38;5082206;28;19920;-78
2023/04/17 01:39:19;;;;;;;;;;;;;;;6.36;100.00;99497.53;5107841;28;19922;-77
2023/04/17 01:41:45;;;;;;;;;;;;;;;6.58;100.00;99496.28;5099277;28;20303;-79
2023/04/17 01:44:10;;;;;;;;;;;;;;;6.42;100.00;99495.91;5089713;28;19920;-78
2023/04/17 01:46:35;;;;;;;;;;;;;;;6.79;99.87;99501.31;5094621;28;20023;-78
2023/04/17 01:49:01;;;;;;;;;;;;;;;6.52;100.00;99496.28;5087705;28;20438;-79
2023/04/17 01:51:26;;;;;;;;;;;;;;;6.61;100.00;99505.66;5091343;28;19920;-79
2023/04/17 01:53:52;;;;;;;;;;;;;;;6.52;100.00;99499.75;5089852;28;20346;-78
2023/04/17 01:56:17;;;;;;;;;;;;;;;6.63;99.86;99498.31;5092099;28;19970;-79
2023/04/17 01:58:42;;;;;;;;;;;;;;;6.77;99.95;99511.31;5087111;28;19951;-79
2023/04/17 02:01:08;;;;;;;;;;;;;;;6.83;98.96;99504.38;5089885;28;19924;-79
2023/04/17 02:03:34;;;;;;;;;;;;;;;6.39;99.64;99506.91;5073202;28;20004;-78
2023/04/17 02:05:59;;;;;;;;;;;;;;;6.47;100.00;99499.56;5089357;28;19919;-79
2023/04/17 02:08:25;;;;;;;;;;;;;;;6.48;100.00;99498.53;5088671;28;19973;-79
2023/04/17 02:10:50;;;;;;;;;;;;;;;6.51;100.00;99497.31;5091336;28;19920;-79
2023/04/17 02:13:15;;;;;;;;;;;;;;;6.65;99.41;99506.88;5091535;28;19920;-78
2023/04/17 02:15:41;;;;;;;;;;;;;;;6.74;99.14;99508.28;5066042;28;19928;-78
2023/04/17 02:18:06;;;;;;;;;;;;;;;6.68;98.66;99506.47;5087310;28;19923;-78
2023/04/17 02:20:32;;;;;;;;;;;;;;;6.97;98.07;99498.00;5089468;28;19927;-79
2023/04/17 02:22:58;;;;;;;;;;;;;;;6.69;97.50;99497.47;5088412;28;19969;-79
2023/04/17 02:25:23;;;;;;;;;;;;;;;6.53;99.36;99505.88;5083996;28;19916;-79
2023/04/17 02:27:49;;;;;;;;;;;;;;;6.57;99.03;99515.06;5085193;28;19926;-79
2023/04/17 02:30:14;;;;;;;;;;;;;;;6.38;100.00;99513.22;5081246;28;20822;-80
2023/04/17 02:32:39;;;;;;;;;;;;;;;6.22;100.00;99516.28;5087063;28;19920;-78
2023/04/17 02:35:05;;;;;;;;;;;;;;;6.45;99.40;99517.50;5077239;28;19959;-81
2023/04/17 02:37:31;;;;;;;;;;;;;;;6.63;99.25;99516.88;5085310;28;20030;-81
2023/04/17 02:39:56;;;;;;;;;;;;;;;6.72;98.07;99516.47;5087763;28;19932;-79
2023/04/17 02:42:21;;;;;;;;;;;;;;;6.38;99.16;99510.56;5090899;28;19951;-78
2023/04/17 02:44:46;;;;;;;;;;;;;;;6.63;98.65;99508.91;5085129;28;19928;-80
2023/04/17 02:47:12;;;;;;;;;;;;;;;6.18;99.95;99504.47;5086487;28;19924;-80
2023/04/17 02:49:37;;;;;;;;;;;;;;;6.04;100.00;99507.13;5088358;28;19991;-80
2023/04/17 02:52:02;;;;;;;;;;;;;;;5.94;100.00;99508.53;5089902;28;19943;-80
2023/04/17 02:54:28;;;;;;;;;;;;;;;6.14;100.00;99511.22;5093211;28;20464;-80
2023/04/17 02:56:57;;;;;;;;;;;;;;;6.36;99.71;99502.81;5075149;28;20284;-80
2023/04/17 02:59:22;;;;;;;;;;;;;;;6.22;100.00;99501.22;5093456;28;19924;-80
2023/04/17 03:01:47;;;;;;;;;;;;;;;6.03;99.68;99504.66;5088240;28;20373;-80
2023/04/17 03:04:14;;;;;;;;;;;;;;;6.17;100.00;99508.13;5088596;28;19963;-81
2023/04/17 03:06:41;;;;;;;;;;;;;;;6.01;100.00;99502.22;5089539;28;20316;-84
2023/04/17 03:09:07;;;;;;;;;;;;;;;6.24;99.52;99507.13;5085185;28;19931;-78
2023/04/17 03:11:33;;;;;;;;;;;;;;;5.91;100.00;99507.09;5092306;28;19920;-81
2023/04/17 03:13:58;;;;;;;;;;;;;;;6.15;100.00;99503.03;5089749;28;20276;-80
2023/04/17 03:16:24;;;;;;;;;;;;;;;6.37;99.65;99501.81;5074088;28;19934;-81
2023/04/17 03:18:49;;;;;;;;;;;;;;;6.38;98.86;99495.47;5094299;28;19928;-82
2023/04/17 03:21:14;;;;;;;;;;;;;;;5.98;98.49;99507.91;5095519;28;19922;-82
2023/04/17 03:23:40;;;;;;;;;;;;;;;5.74;99.15;99508.47;5090250;28;19954;-81
2023/04/17 03:26:05;;;;;;;;;;;;;;;5.82;99.95;99518.88;5076647;28;19928;-81
2023/04/17 03:28:31;;;;;;;;;;;;;;;5.89;99.96;99517.09;5089272;28;19924;-80
2023/04/17 03:30:58;;;;;;;;;;;;;;;5.97;99.19;99518.72;5103615;28;19950;-82
2023/04/17 03:33:23;;;;;;;;;;;;;;;5.68;99.56;99514.56;5090603;28;19924;-81
2023/04/17 03:35:48;;;;;;;;;;;;;;;5.60;99.91;99522.69;5094652;28;19926;-80
2023/04/17 03:38:14;;;;;;;;;;;;;;;5.84;100.00;99529.28;5090048;28;19923;-80
2023/04/17 03:40:39;;;;;;;;;;;;;;;5.87;99.81;99524.44;5099412;28;20010;-79
2023/04/17 03:43:05;;;;;;;;;;;;;;;5.53;100.00;99521.03;5099058;28;19962;-80
2023/04/17 03:45:30;;;;;;;;;;;;;;;5.82;100.00;99533.94;5097239;28;19920;-80
2023/04/17 03:47:55;;;;;;;;;;;;;;;5.71;100.00;99523.94;5111522;28;19920;-79
2023/04/17 03:50:21;;;;;;;;;;;;;;;5.82;99.85;99532.13;5099480;28;20296;-80
2023/04/17 03:52:46;;;;;;;;;;;;;;;5.66;99.33;99531.66;5095680;28;19913;-79
2023/04/17 03:55:12;;;;;;;;;;;;;;;6.00;99.80;99535.03;5109750;28;19955;-80
2023/04/17 03:57:37;;;;;;;;;;;;;;;5.71;98.78;99531.88;5096453;28;19947;-79
2023/04/17 04:00:05;;;;;;;;;;;;;;;5.68;99.20;99533.09;5092960;28;20031;-79
2023/04/17 04:02:30;;;;;;;;;;;;;;;5.74;98.19;99534.16;5096674;28;19935;-80
2023/04/17 04:04:56;;;;;;;;;;;;;;;5.62;98.47;99531.25;5108490;22;19925;-78
2023/04/17 04:07:21;;;;;;;;;;;;;;;5.86;98.75;99530.72;5031733;28;19932;-79
2023/04/17 04:09:46;;;;;;;;;;;;;;;5.93;97.75;99536.88;5044696;28;19924;-79
2023/04/17 04:12:11;;;;;;;;;;;;;;;5.74;98.00;99534.97;5067392;28;19929;-79
2023/04/17 04:14:36;;;;;;;;;;;;;;;5.62;98.22;99539.19;5072020;28;19920;-82
2023/04/17 04:17:02;;;;;;;;;;;;;;;5.62;98.29;99541.84;5047595;28;20042;-81
2023/04/17 04:19:27;;;;;;;;;;;;;;;5.60;97.53;99546.53;5049552;28;20022;-81
2023/04/17 04:21:52;;;;;;;;;;;;;;;5.57;99.07;99544.28;5065673;28;20403;-81
2023/04/17 04:24:19;;;;;;;;;;;;;;;5.47;99.23;99551.78;5049600;28;19925;-81
2023/04/17 04:26:46;;;;;;;;;;;;;;;5.65;98.97;99549.41;5068053;28;19924;-81
2023/04/17 04:29:12;;;;;;;;;;;;;;;5.76;98.38;99542.69;5071526;28;19916;-81
2023/04/17 04:31:37;;;;;;;;;;;;;;;5.51;98.76;99552.19;5073888;28;19916;-81
2023/04/17 04:34:03;;;;;;;;;;;;;;;5.55;98.29;99556.09;5071618;28;19921;-80
2023/04/17 04:36:28;;;;;;;;;;;;;;;5.29;99.94;99556.78;5072869;28;19921;-81
2023/04/17 04:38:58;;;;;;;;;;;;;;;5.36;99.71;99562.94;5071981;28;19916;-81
2023/04/17 04:41:24;;;;;;;;;;;;;;;5.08;99.52;99555.09;5072686;28;19928;-81
2023/04/17 04:43:49;;;;;;;;;;;;;;;5.28;99.69;99566.59;5069795;28;19923;-80
2023/04/17 04:46:14;;;;;;;;;;;;;;;5.52;99.77;99565.25;5069536;28;19920;-81
2023/04/17 04:48:39;;;;;;;;;;;;;;;5.48;99.46;99561.38;5053948;28;19929;-81
2023/04/17 04:51:05;;;;;;;;;;;;;;;5.25;99.34;99563.50;5071477;28;19931;-82
2023/04/17 04:53:30;;;;;;;;;;;;;;;5.22;100.00;99564.69;5073133;28;19921;-83
2023/04/17 04:55:55;;;;;;;;;;;;;;;5.39;99.34;99559.09;5081771;28;19955;-82
2023/04/17 04:58:20;;;;;;;;;;;;;;;5.16;100.00;99572.59;5071973;28;20296;-81
2023/04/17 05:00:46;;;;;;;;;;;;;;;5.32;100.00;99575.75;5053516;28;19947;-81
2023/04/17 05:03:11;;;;;;;;;;;;;;;5.24;99.92;99569.81;5072350;28;19924;-82
2023/04/17 05:05:37;;;;;;;;;;;;;;;5.24;99.97;99572.47;5074341;28;19932;-82
2023/04/17 05:08:02;;;;;;;;;;;;;;;5.32;99.80;99569.63;5073610;28;19924;-80
2023/04/17 05:10:27;;;;;;;;;;;;;;;5.40;99.99;99568.63;5074039;28;20030;-81
2023/04/17 05:12:52;;;;;;;;;;;;;;;5.33;100.00;99580.03;5072796;28;19920;-80
2023/04/17 05:15:18;;;;;;;;;;;;;;;5.26;100.00;99573.09;5073343;28;19929;-82
2023/04/17 05:17:46;;;;;;;;;;;;;;;5.07;100.00;99579.88;5054938;28;19977;-80
2023/04/17 05:20:12;;;;;;;;;;;;;;;5.19;100.00;99580.16;5055134;28;19947;-82
2023/04/17 05:22:37;;;;;;;;;;;;;;;5.21;100.00;99586.91;5081357;28;20385;-80
2023/04/17 05:25:03;;;;;;;;;;;;;;;5.45;100.00;99590.88;5072515;28;19920;-81
2023/04/17 05:27:28;;;;;;;;;;;;;;;5.20;100.00;99590.53;5072264;28;19920;-80
2023/04/17 05:29:54;;;;;;;;;;;;;;;5.25;100.00;99588.13;5072948;28;19921;-82
2023/04/17 05:32:19;;;;;;;;;;;;;;;5.24;100.00;99594.44;5072954;28;19920;-81
2023/04/17 05:34:47;;;;;;;;;;;;;;;5.20;100.00;99595.84;5073453;28;20285;-82
2023/04/17 05:37:12;;;;;;;;;;;;;;;5.37;100.00;99603.47;5072629;28;19924;-81
2023/04/17 05:39:37;;;;;;;;;;;;;;;5.34;100.00;99594.06;5073039;28;19921;-80
2023/04/17 05:42:03;;;;;;;;;;;;;;;5.37;100.00;99595.53;5073000;28;19928;-81
2023/04/17 05:44:28;;;;;;;;;;;;;;;5.67;100.00;99602.97;5073411;28;20408;-81
2023/04/17 05:46:56;;;;;;;;;;;;;;;5.56;99.49;99600.91;5055214;28;19920;-81
2023/04/17 05:49:21;;;;;;;;;;;;;;;5.74;99.39;99598.53;5073813;28;20015;-82
2023/04/17 05:51:46;;;;;;;;;;;;;;;5.53;100.00;99598.63;5072992;28;19967;-82
2023/04/17 05:54:11;;;;;;;;;;;;;;;5.36;100.00;99599.16;5071746;28;20308;-81
2023/04/17 05:56:38;;;;;;;;;;;;;;;5.35;99.83;99601.03;5054169;28;19972;-82
2023/04/17 05:59:03;;;;;;;;;;;;;;;5.44;100.00;99602.47;5039310;28;19931;-81
2023/04/17 06:01:28;;;;;;;;;;;;;;;5.39;100.00;99606.72;5073551;28;20033;-82
2023/04/17 06:03:53;;;;;;;;;;;;;;;5.53;100.00;99605.75;5055832;28;20331;-81
2023/04/17 06:06:19;;;;;;;;;;;;;;;5.47;100.00;99604.72;5070948;28;19924;-82
2023/04/17 06:08:44;;;;;;;;;;;;;;;5.45;99.32;99609.41;5072824;28;19920;-82
2023/04/17 06:11:09;;;;;;;;;;;;;;;5.40;99.74;99617.09;5073438;28;19916;-81
2023/04/17 06:13:34;;;;;;;;;;;;;;;5.63;99.80;99611.53;5072159;28;19920;-81
2023/04/17 06:16:00;;;;;;;;;;;;;;;5.64;98.82;99608.66;5073303;28;19948;-82
2023/04/17 06:18:25;;;;;;;;;;;;;;;5.57;99.54;99617.63;5071069;28;19921;-81
2023/04/17 06:20:50;;;;;;;;;;;;;;;5.62;99.11;99618.63;5072044;28;19924;-81
2023/04/17 06:23:15;;;;;;;;;;;;;;;5.89;98.74;99628.34;5053035;28;19920;-81
2023/04/17 06:25:41;;;;;;;;;;;;;;;5.66;98.96;99627.00;5054869;28;20015;-82
2023/04/17 06:28:06;;;;;;;;;;;;;;;5.67;98.32;99628.63;5055123;28;20010;-82
2023/04/17 06:30:31;;;;;;;;;;;;;;;5.56;99.26;99626.56;5073252;28;19917;-81
2023/04/17 06:32:56;;;;;;;;;;;;;;;5.84;98.58;99629.94;5072818;28;20403;-82
2023/04/17 06:35:21;;;;;;;;;;;;;;;5.88;97.42;99639.97;5073082;28;19917;-82
2023/04/17 06:37:47;;;;;;;;;;;;;;;5.82;97.67;99648.66;5055278;28;20407;-82
2023/04/17 06:40:12;;;;;;;;;;;;;;;5.90;97.46;99640.56;5072086;28;19928;-81
2023/04/17 06:42:37;;;;;;;;;;;;;;;6.16;96.40;99633.72;5073354;28;19920;-81
2023/04/17 06:45:03;;;;;;;;;;;;;;;5.90;96.71;99645.06;5054661;28;19970;-81
2023/04/17 06:47:28;;;;;;;;;;;;;;;5.98;96.69;99640.38;5088135;28;19916;-81
2023/04/17 06:49:53;;;;;;;;;;;;;;;6.00;96.58;99638.38;5055483;28;19959;-82
2023/04/17 06:52:20;;;;;;;;;;;;;;;6.31;95.72;99647.63;5073822;28;19927;-82
2023/04/17 06:54:46;;;;;;;;;;;;;;;6.25;96.59;99646.56;5086555;28;19921;-81
2023/04/17 06:57:11;;;;;;;;;;;;;;;6.14;95.99;99647.16;5072421;28;19921;-82
2023/04/17 06:59:37;;;;;;;;;;;;;;;6.27;95.30;99647.19;5073269;28;20011;-82
2023/04/17 07:02:02;;;;;;;;;;;;;;;5.68;95.40;99607.25;5072776;28;20010;-82
2023/04/17 07:04:29;;;;;;;;;;;;;;;6.14;95.20;99668.34;5053835;28;20308;-81
2023/04/17 07:06:54;;;;;;;;;;;;;;;6.44;95.05;99664.38;5071832;28;19921;-81
2023/04/17 07:09:20;;;;;;;;;;;;;;;6.39;93.72;99658.84;5053815;28;20277;-81
2023/04/17 07:11:45;;;;;;;;;;;;;;;6.28;93.96;99667.38;5071757;28;19956;-82
2023/04/17 07:14:10;;;;;;;;;;;;;;;6.55;94.69;99668.25;5072621;28;19916;-81
2023/04/17 07:16:35;;;;;;;;;;;;;;;6.71;93.63;99666.00;5071514;28;20279;-82
2023/04/17 07:19:01;;;;;;;;;;;;;;;6.64;93.73;99669.69;5071634;28;20277;-82
2023/04/17 07:21:26;;;;;;;;;;;;;;;6.53;93.94;99667.66;5087585;28;19921;-81
2023/04/17 07:23:52;;;;;;;;;;;;;;;7.00;93.99;99664.78;5072853;28;19925;-81
2023/04/17 07:26:17;;;;;;;;;;;;;;;6.77;93.62;99672.38;5074965;28;19925;-81
2023/04/17 07:28:42;;;;;;;;;;;;;;;6.61;93.02;99670.91;5074947;28;19964;-82
2023/04/17 07:31:08;;;;;;;;;;;;;;;7.22;92.56;99674.16;5075263;28;19912;-82
2023/04/17 07:33:42;;;;;;;;;;;;;;;7.12;92.50;99679.06;5075310;28;19931;-82
2023/04/17 07:36:08;;;;;;;;;;;;;;;6.58;93.28;99679.28;5075285;28;19919;-81
2023/04/17 07:38:34;;;;;;;;;;;;;;;6.89;94.19;99689.28;5090819;28;20364;-81
2023/04/17 07:40:59;;;;;;;;;;;;;;;6.93;92.65;99685.19;5075038;28;19921;-81
2023/04/17 07:43:25;;;;;;;;;;;;;;;7.23;91.74;99691.72;5073917;28;19947;-82
2023/04/17 07:45:50;;;;;;;;;;;;;;;7.21;92.40;99684.97;5074718;28;19999;-81
2023/04/17 07:48:16;;;;;;;;;;;;;;;7.28;92.72;99691.09;5056997;28;19917;-82
2023/04/17 07:50:42;;;;;;;;;;;;;;;7.12;92.08;99684.38;5075061;28;19947;-82
2023/04/17 07:53:07;;;;;;;;;;;;;;;6.89;91.30;99688.47;5057335;28;19916;-81
2023/04/17 07:55:32;;;;;;;;;;;;;;;7.28;91.07;99689.25;5075581;28;19923;-81
2023/04/17 07:58:00;;;;;;;;;;;;;;;7.19;91.70;99693.16;5073869;28;20339;-82
2023/04/17 08:00:25;;;;;;;;;;;;;;;6.93;92.17;99700.31;5074453;28;19977;-83
2023/04/17 08:02:51;;;;;;;;;;;;;;;7.35;92.41;99700.69;5074171;28;19987;-82
2023/04/17 08:05:16;;;;;;;;;;;;;;;6.77;91.13;99694.38;5057632;28;19957;-83
2023/04/17 08:07:42;;;;;;;;;;;;;;;6.86;90.52;99694.19;5074291;28;19924;-81
2023/04/17 08:10:07;;;;;;;;;;;;;;;7.28;91.05;99697.22;5075339;28;20355;-81
2023/04/17 08:12:32;;;;;;;;;;;;;;;7.39;89.50;99696.59;5075005;28;19928;-82
2023/04/17 08:14:58;;;;;;;;;;;;;;;7.16;90.03;99703.38;5076043;28;19970;-82
2023/04/17 08:17:24;;;;;;;;;;;;;;;7.84;90.87;99705.47;5074700;28;19970;-82
2023/04/17 08:19:52;;;;;;;;;;;;;;;7.89;89.80;99703.00;5075691;28;19920;-82
2023/04/17 08:22:20;;;;;;;;;;;;;;;8.15;88.56;99697.59;5074382;28;19927;-83
2023/04/17 08:24:45;;;;;;;;;;;;;;;7.37;87.16;99695.16;5057110;28;20288;-82
2023/04/17 08:27:12;;;;;;;;;;;;;;;7.20;88.32;99702.75;5075622;28;19920;-82
2023/04/17 08:29:38;;;;;;;;;;;;;;;7.83;90.01;99703.03;5075275;28;19917;-82
2023/04/17 08:32:03;;;;;;;;;;;;;;;7.84;88.85;99704.69;5075319;28;20053;-82
2023/04/17 08:34:30;;;;;;;;;;;;;;;7.79;86.93;99712.44;5074516;28;20241;-82
2023/04/17 08:36:55;;;;;;;;;;;;;;;8.17;87.28;99708.00;5075167;28;20252;-82
2023/04/17 08:39:20;;;;;;;;;;;;;;;8.34;87.53;99706.53;5075210;28;19923;-81
2023/04/17 08:41:48;;;;;;;;;;;;;;;7.95;85.22;99707.47;5075002;28;19916;-82
2023/04/17 08:44:17;;;;;;;;;;;;;;;8.40;86.76;99703.00;5074898;28;20300;-79
2023/04/17 08:46:42;;;;;;;;;;;;;;;8.45;85.41;99711.19;5074823;28;19923;-82
2023/04/17 08:49:07;;;;;;;;;;;;;;;8.71;84.30;99712.84;5075063;28;20371;-82
2023/04/17 08:51:34;;;;;;;;;;;;;;;8.53;83.60;99718.91;5074747;28;19920;-82
2023/04/17 08:53:59;;;;;;;;;;;;;;;8.54;82.62;99720.50;5075397;28;19962;-82
2023/04/17 08:56:25;;;;;;;;;;;;;;;8.19;82.16;99713.94;5074794;28;19916;-83
2023/04/17 08:58:50;;;;;;;;;;;;;;;8.34;84.88;99711.03;5074325;28;19921;-82
2023/04/17 09:01:16;;;;;;;;;;;;;;;8.32;83.44;99710.44;5074578;28;20457;-82
2023/04/17 09:03:48;;;;;;;;;;;;;;;8.32;84.01;99707.78;5073772;28;19950;-82
2023/04/17 09:06:14;;;;;;;;;;;;;;;8.83;84.80;99706.63;5073799;28;19944;-83
2023/04/17 09:08:53;;;;;;;;;;;;;;;8.79;83.33;99713.41;5072879;28;20435;-82
2023/04/17 09:11:18;;;;;;;;;;;;;;;9.04;82.37;99708.91;5071412;28;19999;-83
2023/04/17 09:13:43;;;;;;;;;;;;;;;8.69;80.81;99721.03;5055187;28;19955;-82
2023/04/17 09:16:10;;;;;;;;;;;;;;;8.78;82.25;99710.97;5073569;28;19916;-82
2023/04/17 09:18:36;;;;;;;;;;;;;;;8.71;80.93;99718.19;5073379;28;19912;-81
2023/04/17 09:21:02;;;;;;;;;;;;;;;9.69;85.72;99718.16;5073514;28;19917;-81
2023/04/17 09:23:28;;;;;;;;;;;;;;;9.01;80.79;99719.19;5073675;28;19919;-82
2023/04/17 09:26:06;;;;;;;;;;;;;;;8.62;79.45;99722.94;5073245;28;19913;-81
2023/04/17 09:28:34;;;;;;;;;;;;;;;8.83;78.05;99713.78;5073228;28;19955;-82
2023/04/17 09:31:04;;;;;;;;;;;;;;;9.08;77.82;99711.97;5072281;28;19920;-82
2023/04/17 09:33:30;;;;;;;;;;;;;;;9.10;78.27;99719.72;5073568;28;20011;-82
2023/04/17 09:35:55;;;;;;;;;;;;;;;9.13;78.73;99714.75;5072776;28;20363;-81
2023/04/17 09:38:36;;;;;;;;;;;;;;;9.42;80.75;99721.28;5073188;28;19916;-82
2023/04/17 09:41:01;;;;;;;;;;;;;;;9.21;77.52;99727.00;5073299;28;19916;-81
2023/04/17 09:43:39;;;;;;;;;;;;;;;9.46;79.95;99725.94;5073865;28;19916;-81
2023/04/17 09:46:04;;;;;;;;;;;;;;;9.66;79.55;99723.09;5072383;28;19912;-81
2023/04/17 09:48:29;;;;;;;;;;;;;;;9.50;82.71;99723.69;5071471;28;19920;-81
2023/04/17 09:50:55;;;;;;;;;;;;;;;9.43;77.18;99726.41;5072441;28;19921;-81
2023/04/17 09:53:21;;;;;;;;;;;;;;;8.94;76.69;99727.22;5073663;28;19912;-81
2023/04/17 09:55:48;;;;;;;;;;;;;;;8.99;79.11;99724.72;5073225;28;20304;-82
2023/04/17 09:58:14;;;;;;;;;;;;;;;9.47;77.90;99718.78;5072559;28;19924;-82
2023/04/17 10:00:40;;;;;;;;;;;;;;;9.83;77.76;99727.63;5055247;28;19948;-81
2023/04/17 10:03:05;;;;;;;;;;;;;;;9.53;76.53;99723.22;5073234;28;19920;-82
2023/04/17 10:05:31;;;;;;;;;;;;;;;9.74;78.87;99720.16;5071815;28;19974;-81
2023/04/17 10:07:56;;;;;;;;;;;;;;;9.75;75.53;99719.09;5072360;28;20523;-81
2023/04/17 10:10:27;;;;;;;;;;;;;;;9.70;77.45;99725.09;5054534;28;19916;-80
2023/04/17 10:12:54;;;;;;;;;;;;;;;10.01;77.07;99725.97;5054512;28;19916;-82
2023/04/17 10:15:20;;;;;;;;;;;;;;;9.97;76.74;99722.97;5072155;28;19917;-81
2023/04/17 10:17:47;;;;;;;;;;;;;;;9.70;74.60;99724.28;5072384;28;20007;-81
2023/04/17 10:20:16;;;;;;;;;;;;;;;9.57;74.78;99677.25;5071969;28;19921;-81
2023/04/17 10:22:42;;;;;;;;;;;;;;;9.69;74.51;99725.31;5072608;28;19923;-81
2023/04/17 10:25:10;;;;;;;;;;;;;;;10.15;75.00;99728.31;5071654;28;19920;-81
2023/04/17 10:27:35;;;;;;;;;;;;;;;10.02;73.19;99719.63;5072608;28;19952;-81
2023/04/17 10:30:01;;;;;;;;;;;;;;;9.87;71.29;99724.53;5072215;28;19912;-81
2023/04/17 10:32:27;;;;;;;;;;;;;;;9.55;71.08;99721.16;5072392;28;19920;-81
2023/04/17 10:35:00;;;;;;;;;;;;;;;10.00;71.77;99711.84;5054087;28;20372;-81
2023/04/17 10:37:44;;;;;;;;;;;;;;;10.00;70.95;99713.69;5072412;28;19912;-82
2023/04/17 10:40:10;;;;;;;;;;;;;;;10.13;70.65;99709.06;5071329;28;19927;-80
2023/04/17 10:42:35;;;;;;;;;;;;;;;10.40;76.32;99706.84;5071413;28;19916;-81
2023/04/17 10:45:04;;;;;;;;;;;;;;;10.78;73.45;99706.50;5071602;28;19916;-81
2023/04/17 10:47:30;;;;;;;;;;;;;;;11.05;75.41;99703.19;5072304;28;19975;-81
2023/04/17 10:49:58;;;;;;;;;;;;;;;10.93;69.22;99704.22;5072364;28;19913;-82
2023/04/17 10:52:49;;;;;;;;;;;;;;;10.72;70.44;99710.09;5071983;28;19916;-81
2023/04/17 10:55:19;;;;;;;;;;;;;;;11.64;72.40;99702.16;5067650;28;19912;-81
2023/04/17 10:58:04;;;;;;;;;;;;;;;11.86;73.06;99702.41;5071043;28;19917;-81
2023/04/17 11:00:35;;;;;;;;;;;;;;;11.15;67.90;99702.63;5076016;28;19942;-81
2023/04/17 11:03:02;;;;;;;;;;;;;;;11.14;68.73;99700.97;5075731;28;19912;-81
2023/04/17 11:05:28;;;;;;;;;;;;;;;11.56;68.32;99697.16;5075560;28;20411;-81
2023/04/17 11:07:53;;;;;;;;;;;;;;;11.57;74.09;99698.81;5075651;28;19920;-81
2023/04/17 11:10:19;;;;;;;;;;;;;;;11.58;68.72;99699.59;5057337;28;19923;-81
2023/04/17 11:12:55;;;;;;;;;;;;;;;11.35;67.22;99696.94;5075128;28;19916;-81
2023/04/17 11:15:26;;;;;;;;;;;;;;;12.00;66.32;99701.91;5075153;28;20464;-80
2023/04/17 11:17:53;;;;;;;;;;;;;;;11.75;70.86;99697.88;5074426;28;19916;-81
2023/04/17 11:20:22;;;;;;;;;;;;;;;11.52;66.31;99696.00;5074295;28;19920;-81
2023/04/17 11:22:47;;;;;;;;;;;;;;;12.07;70.21;99695.59;5074441;28;19912;-81
2023/04/17 11:25:20;;;;;;;;;;;;;;;11.21;66.15;99697.16;5056247;28;20296;-80
2023/04/17 11:27:45;;;;;;;;;;;;;;;11.09;67.80;99698.22;5074765;28;19952;-80
2023/04/17 11:30:11;;;;;;;;;;;;;;;11.12;66.01;99697.72;5057046;28;19920;-81
2023/04/17 11:32:36;;;;;;;;;;;;;;;11.19;66.64;99691.25;5072433;28;19923;-81
2023/04/17 11:35:03;;;;;;;;;;;;;;;11.61;67.23;99691.13;5074822;28;19924;-80
2023/04/17 11:37:28;;;;;;;;;;;;;;;12.15;67.66;99690.69;5074671;28;19943;-81
2023/04/17 11:40:00;;;;;;;;;;;;;;;11.73;62.93;99700.78;5075122;28;20329;-81
2023/04/17 11:42:26;;;;;;;;;;;;;;;11.51;62.30;99694.38;5075663;28;19924;-81
2023/04/17 11:44:51;;;;;;;;;;;;;;;11.30;61.95;99695.78;5057962;28;19938;-82
2023/04/17 11:47:18;;;;;;;;;;;;;;;12.10;68.43;99690.56;5057772;28;19920;-81
2023/04/17 11:49:45;;;;;;;;;;;;;;;12.59;65.71;99699.81;5075273;28;20058;-80
2023/04/17 11:52:10;;;;;;;;;;;;;;;12.49;62.03;99692.41;5076119;28;19916;-82
2023/04/17 11:54:37;;;;;;;;;;;;;;;12.93;66.51;99689.97;5074879;28;19991;-79
2023/04/17 11:57:06;;;;;;;;;;;;;;;12.87;65.96;99686.38;5062078;28;20477;-80
2023/04/17 11:59:32;;;;;;;;;;;;;;;13.50;66.03;99686.88;5072363;28;19920;-80
2023/04/17 12:01:59;;;;;;;;;;;;;;;13.65;64.61;99688.94;5071732;28;19920;-80
2023/04/17 12:04:25;;;;;;;;;;;;;;;13.03;61.38;99690.13;5073686;28;19920;-81
2023/04/17 12:06:50;;;;;;;;;;;;;;;13.56;62.17;99681.59;5071571;28;19927;-79
2023/04/17 12:09:20;;;;;;;;;;;;;;;13.19;61.82;99681.31;5056112;28;19922;-81
2023/04/17 12:11:45;;;;;;;;;;;;;;;13.46;58.07;99679.56;5072931;28;19931;-81
2023/04/17 12:14:10;;;;;;;;;;;;;;;13.46;59.89;99671.50;5056265;28;19916;-81
2023/04/17 12:16:36;;;;;;;;;;;;;;;13.65;60.61;99683.56;5054640;28;19960;-82
2023/04/17 12:19:01;;;;;;;;;;;;;;;13.60;57.42;99680.03;5077653;28;19917;-81
2023/04/17 12:21:26;;;;;;;;;;;;;;;13.67;64.74;99684.16;5071608;28;19924;-81
2023/04/17 12:23:52;;;;;;;;;;;;;;;13.07;58.47;99672.53;5065429;28;20023;-81
2023/04/17 12:26:17;;;;;;;;;;;;;;;13.85;61.36;99669.63;5061170;28;19920;-81
2023/04/17 12:28:42;;;;;;;;;;;;;;;13.22;58.23;99662.84;5077632;28;19921;-80
2023/04/17 12:31:07;;;;;;;;;;;;;;;13.15;59.21;99672.94;5074557;28;19912;-82
2023/04/17 12:33:33;;;;;;;;;;;;;;;12.81;60.23;99668.59;5074672;28;20003;-81
2023/04/17 12:35:59;;;;;;;;;;;;;;;12.58;57.51;99666.84;5073853;28;19920;-81
2023/04/17 12:38:24;;;;;;;;;;;;;;;11.87;59.00;99670.06;5072943;28;19974;-79
2023/04/17 12:40:50;;;;;;;;;;;;;;;12.24;60.62;99675.06;5069449;28;19939;-78
2023/04/17 12:43:15;;;;;;;;;;;;;;;12.08;60.39;99670.47;5071128;28;19924;-80
2023/04/17 12:45:44;;;;;;;;;;;;;;;11.53;59.28;99678.91;5073538;28;19918;-79
2023/04/17 12:48:10;;;;;;;;;;;;;;;11.92;58.58;99672.03;5072938;28;20359;-79